Latest Coastal Weather Observations for East Sale

IDV60701

Issued at 6:45 pm EST Thursday 2 October 2014 (issued every 10 minutes, with the page automatically refreshed every 10 minutes)

About coastal observations | Map of coastal stations | Coastal observations for VIC | Marine services | Other Formats
Station Details ID: 085072 Name: EAST SALE AIRPORT Lat: -38.12 Lon: 147.13 Height: 4.6 m
Data from the previous 72 hours. | See also: Recent months at East Sale
Date/Time
EST
Temp

°C
Wind Pressure Rain
since 9am
mm
Weather Cloud Vis
km
Sea
Height
m
Swell
Dir
 
Speed
knots
Gust
knots
hPa Trend Height
m
Period
s
Dir
02/06:30pm 13.5 W 14 21 1021.8 - 0.0 - Partly cloudy 10 - - - -
02/06:00pm 14.0 W 9 14 1021.8 - 0.0 - Cloudy 10 - - - -
02/05:30pm 14.1 W 15 21 1021.6 - 0.0 - Partly cloudy 10 - - - -
02/05:00pm 14.7 W 17 27 1021.2 - 0.0 - Partly cloudy 10 - - - -
02/04:32pm 14.6 W 19 29 1021.1 - 0.0 - Partly cloudy 10 - - - -
02/04:30pm 14.6 W 18 25 1021.1 - 0.0 - Partly cloudy 10 - - - -
02/04:00pm 15.1 W 23 30 1021.0 - 0.0 - Partly cloudy 10 - - - -
02/03:46pm 15.3 W 20 30 1020.8 - 0.0 - Partly cloudy 10 - - - -
02/03:30pm 14.9 W 20 27 1020.9 - 0.0 - Partly cloudy 10 - - - -
02/03:04pm 15.5 W 23 33 1020.8 - 0.0 - Partly cloudy 10 - - - -
02/03:00pm 14.9 W 25 33 1020.8 R 0.0 Fine Partly cloudy 25 - - - -
02/02:30pm 14.7 WSW 20 31 1020.9 - 0.0 - Partly cloudy 10 - - - -
02/02:02pm 14.7 W 22 32 1021.0 - 0.0 - Partly cloudy 10 - - - -
02/02:00pm 14.7 W 23 32 1020.9 - 0.0 - Partly cloudy 10 - - - -
02/01:51pm 15.4 W 19 30 1020.8 - 0.0 - Mostly cloudy 10 - - - -
02/01:30pm 16.6 W 22 30 1020.9 - 0.0 - Partly cloudy 10 - - - -
02/01:00pm 15.2 W 23 33 1020.9 - 0.0 - Mostly cloudy 10 - - - -
02/12:48pm 15.3 W 22 32 1021.0 - 0.0 - Mostly cloudy 10 - - - -
02/12:30pm 15.3 W 22 30 1021.1 - 0.0 - Partly cloudy 10 - - - -
02/12:15pm 15.0 W 21 31 1021.2 - 0.0 - Mostly cloudy 10 - - - -
02/12:00pm 15.1 W 21 27 1021.5 - 0.0 - Cloudy 10 - - - -
02/11:30am 14.5 W 20 31 1021.5 - 0.0 - Mostly cloudy 10 - - - -
02/11:04am 14.5 W 21 31 1021.6 - 0.0 - Partly cloudy 10 - - - -
02/11:00am 14.4 W 20 29 1021.7 - 0.0 - Mostly cloudy 10 - - - -
02/10:30am 14.3 W 21 29 1021.6 - 0.0 - Cloudy 10 - - - -
02/10:00am 13.8 W 15 25 1022.0 - 0.0 - Cloudy 10 - - - -
02/09:41am 13.3 W 19 29 1022.0 - 0.0 - Cloudy 10 - - - -
02/09:30am 13.4 W 18 26 1021.9 - 0.0 - Cloudy 10 - - - -
02/09:00am 12.7 W 13 20 1022.2 F 2.0 Fine Mostly cloudy 25 - - - -
02/08:30am 12.5 W 15 22 1021.9 - - - Mostly cloudy 10 - - - -
02/08:00am 12.2 W 16 21 1021.9 - - - Cloudy 10 - - - -
02/07:30am 11.9 W 12 17 1021.9 - - - Cloudy 10 - - - -
02/07:00am 11.4 WNW 12 15 1021.8 - - - Mostly cloudy 10 - - - -
02/06:30am 10.8 W 11 14 1021.8 - - - Partly cloudy 10 - - - -
02/06:00am 10.5 W 12 14 1021.9 - - - Cloudy 10 - - - -
02/05:30am 9.3 W 8 10 1021.8 - - - Partly cloudy 10 - - - -
02/05:00am 8.3 WNW 6 7 1021.7 - - - Partly cloudy 10 - - - -
02/04:30am 8.1 WNW 8 9 1021.8 - - - Partly cloudy 10 - - - -
02/04:00am 8.2 W 11 13 1021.9 - - - Partly cloudy 10 - - - -
02/03:30am 8.9 WNW 10 12 1022.0 - - - Partly cloudy 10 - - - -
02/03:00am 8.0 WNW 10 11 1022.5 - - - Mostly clear 10 - - - -
02/02:30am 8.0 W 8 8 1022.6 - - - - 10 - - - -
02/02:00am 8.7 W 7 9 1022.9 - - - Partly cloudy 10 - - - -
02/01:30am 9.1 WNW 7 7 1023.1 - - - Cloudy 10 - - - -
02/01:00am 8.9 WNW 7 8 1023.3 - - - Partly cloudy 10 - - - -
02/12:30am 9.4 W 7 8 1023.6 - - - Partly cloudy 10 - - - -
02/12:00am 9.3 WNW 6 8 1023.7 - - - Cloudy 10 - - - -
 
Date/Time
EST
Temp

°C
Wind Pressure Rain
since 9am
mm
Weather Cloud Vis
km
Sea
Height
m
Swell
Dir
 
Speed
knots
Gust
knots
hPa Trend Height
m
Period
s
Dir
01/11:30pm 9.2 W 10 12 1023.8 - - - Partly cloudy 10 - - - -
01/11:00pm 9.6 W 10 12 1024.0 - - - Partly cloudy 10 - - - -
01/10:30pm 8.8 WNW 8 11 1023.9 - - - Partly cloudy 10 - - - -
01/10:00pm 8.8 WNW 10 13 1024.0 - - - Partly cloudy 10 - - - -
01/09:30pm 9.5 WNW 8 11 1024.5 - - - Cloudy 10 - - - -
01/09:00pm 9.0 NW 7 8 1024.3 - - - Partly cloudy 10 - - - -
01/08:30pm 9.3 WNW 9 10 1024.2 - - - - 10 - - - -
01/08:00pm 9.7 W 10 13 1024.2 - - - Partly cloudy 10 - - - -
01/07:30pm 10.3 W 11 13 1023.6 - - - - 10 - - - -
01/07:00pm 10.6 WNW 8 11 1023.4 - - - Partly cloudy 10 - - - -
01/06:30pm 11.1 W 11 15 1023.1 - - - Partly cloudy 10 - - - -
01/06:00pm 11.5 W 12 19 1022.9 - - - Mostly clear 10 - - - -
01/05:30pm 12.4 W 14 19 1022.6 - - - Partly cloudy 10 - - - -
01/05:00pm 13.2 W 18 25 1022.3 - - - Partly cloudy 10 - - - -
01/04:30pm 13.2 W 17 26 1022.4 - - - Partly cloudy 10 - - - -
01/04:19pm 13.5 W 16 30 1022.2 - - - Partly cloudy 10 - - - -
01/04:00pm 14.4 W 17 23 1021.9 - - - Mostly clear 10 - - - -
01/03:30pm 14.8 W 19 26 1021.7 - - - Mostly clear 10 - - - -
01/03:00pm 14.2 W 18 23 1021.7 R 2.0 Fine Partly cloudy 30 - - - -
01/02:30pm 14.8 W 18 26 1021.1 - - - Partly cloudy 10 - - - -
01/02:00pm 15.3 W 17 25 1021.9 - 2.4 - Partly cloudy 10 - - - -
01/01:46pm 15.0 W 19 29 1021.6 - 2.4 - - 10 - - - -
01/01:30pm 15.1 W 19 26 1021.6 - 2.4 - - 10 - - - -
01/01:04pm 14.8 W 21 31 1021.5 - 2.4 - - 10 - - - -
01/01:00pm 14.8 W 19 27 1021.5 - 2.4 - Partly cloudy 10 - - - -
01/12:30pm 14.4 W 17 25 1021.7 - 2.4 - Partly cloudy 10 - - - -
01/12:00pm 14.5 W 15 19 1021.9 - 2.4 - Partly cloudy 8 - - - -
01/11:30am 13.1 W 14 19 1022.2 - 2.4 - Mostly clear 10 - - - -
01/11:00am 10.2 W 11 13 1022.4 - 2.4 - Mostly clear 7 - - - -
01/10:48am 9.1 W 14 18 1022.6 - 2.4 - Partly cloudy 6 - - - -
01/10:41am 9.0 SW 21 25 1022.8 - 2.0 Showers Partly cloudy 7 - - - -
01/10:30am 10.9 W 18 26 1021.9 - 0.0 Showers Mostly cloudy 5 - - - -
01/10:00am 12.6 W 16 22 1021.7 - 0.0 - Partly cloudy 10 - - - -
01/09:30am 11.9 W 17 23 1021.6 - 0.0 - Mostly clear 10 - - - -
01/09:00am 10.9 W 17 24 1021.1 R 7.0 Fine Mostly clear 20 - - - -
01/08:30am 10.1 W 13 20 1020.9 - - - Mostly clear 10 - - - -
01/08:00am 9.7 W 17 23 1020.5 - - - Mostly clear 10 - - - -
01/07:30am 8.5 W 15 21 1019.5 - - - Mostly clear 10 - - - -
01/06:00am 6.3 W 13 17 1018.1 - 6.8 - Mostly clear 10 - - - -
01/05:30am 6.1 W 12 15 1017.6 - 6.8 - Partly cloudy 10 - - - -
01/05:00am 6.3 W 11 14 1017.0 - 6.8 - Partly cloudy 10 - - - -
01/04:30am 6.4 W 15 21 1016.4 - 6.8 - Partly cloudy 10 - - - -
01/04:00am 6.6 W 21 28 1015.5 - 6.8 - Partly cloudy 10 - - - -
01/03:43am 7.3 W 19 30 1014.9 - 6.8 - Partly cloudy 10 - - - -
01/03:30am 6.8 W 17 23 1015.1 - 6.8 - Partly cloudy 10 - - - -
01/03:00am 6.7 W 17 23 1014.8 - 6.8 - Mostly cloudy 10 - - - -
01/02:30am 6.5 W 15 21 1014.4 - 6.8 - Partly cloudy 10 - - - -
01/02:00am 6.7 WNW 16 20 1014.2 - 6.8 - Partly cloudy 10 - - - -
01/01:30am 6.8 W 19 25 1013.9 - 6.8 - Partly cloudy 10 - - - -
01/01:00am 6.8 WNW 17 22 1013.7 - 6.8 - Partly cloudy 10 - - - -
01/12:30am 6.6 WNW 19 26 1013.3 - 6.8 - Partly cloudy 10 - - - -
01/12:29am 6.6 WNW 20 29 1013.3 - 6.8 - Partly cloudy 10 - - - -
01/12:17am 7.0 W 22 29 1013.5 - 6.8 - Partly cloudy 6 - - - -
01/12:16am 7.0 W 23 29 1013.6 - 6.8 - Partly cloudy 7 - - - -
01/12:00am 7.2 W 23 32 1013.2 - 6.4 - Cloudy 2 - - - -
 
Date/Time
EST
Temp

°C
Wind Pressure Rain
since 9am
mm
Weather Cloud Vis
km
Sea
Height
m
Swell
Dir
 
Speed
knots
Gust
knots
hPa Trend Height
m
Period
s
Dir
30/11:55pm 7.3 W 25 32 1013.3 - 6.2 - Partly cloudy 4 - - - -
30/11:52pm 7.4 WSW 22 31 1013.4 - 6.0 - Partly cloudy 6 - - - -
30/11:48pm 7.7 SW 21 29 1013.1 - 5.4 - Partly cloudy 10 - - - -
30/11:30pm 9.2 W 17 23 1012.2 - 5.0 - Partly cloudy 10 - - - -
30/11:00pm 8.8 WNW 14 18 1012.2 - 5.0 - - 10 - - - -
30/10:30pm 9.0 W 17 24 1011.8 - 5.0 - - 10 - - - -
30/10:00pm 9.0 W 17 22 1011.4 - 5.0 - - 10 - - - -
30/09:30pm 9.4 WNW 18 26 1011.0 - 5.0 - - 10 - - - -
30/09:00pm 8.9 WNW 16 22 1010.8 - 5.0 - - 10 - - - -
30/08:30pm 9.2 WNW 17 21 1010.6 - 5.0 - Partly cloudy 10 - - - -
30/08:08pm 9.5 WNW 20 30 1010.8 - 5.0 - Partly cloudy 10 - - - -
30/08:00pm 9.3 WNW 17 23 1010.5 - 5.0 - Partly cloudy 10 - - - -
30/07:30pm 8.8 WNW 19 28 1010.1 - 5.0 - Partly cloudy 10 - - - -
30/07:00pm 8.8 W 24 33 1009.5 - 5.0 - Partly cloudy 10 - - - -
30/06:30pm 9.1 W 26 37 1008.0 - 4.8 - Partly cloudy 10 - - - -
30/06:00pm 10.4 W 28 - 1008.0 - - - Cloudy - - - - -
30/05:31pm 11.5 WSW 30 41 1006.2 - 4.2 - Partly cloudy 3 - - - -
30/05:30pm 11.5 WSW 33 41 1006.0 - 4.0 - Partly cloudy 3 - - - -
30/05:13pm 13.1 W 22 32 1005.2 - 1.6 - Partly cloudy 5 - - - -
30/05:07pm 13.1 W 23 32 1003.9 - 1.4 - Partly cloudy 6 - - - -
30/05:00pm 13.3 WSW 27 42 1003.8 - 0.2 Showers Mostly clear 6 - - - -
30/04:46pm 14.9 W 36 47 1003.0 - 0.0 - Partly cloudy 3 - - - -
30/04:42pm 16.7 WNW 25 48 1002.5 - 0.0 - Partly cloudy 5 - - - -
30/04:30pm 21.7 NW 21 28 1000.6 - 0.0 - Partly cloudy 10 - - - -
30/04:00pm 22.0 NW 24 35 1000.7 - 0.0 - Partly cloudy 10 - - - -
30/03:30pm 21.9 NW 28 38 1001.6 - 0.0 - - 10 - - - -
30/03:26pm 22.0 NW 27 38 1001.3 - 0.0 - - 10 - - - -
30/03:14pm 22.3 NW 33 41 1000.9 - 0.0 - - 10 - - - -
30/03:08pm 22.9 NW 22 33 1001.1 - 0.0 - - 10 - - - -
30/03:00pm 23.1 NW 26 33 1001.2 F 0.0 Fine Mostly clear 30 - - - -
30/02:36pm 23.4 NW 25 36 1001.3 - 0.0 - - 10 - - - -
30/02:30pm 23.1 NW 23 31 1001.4 - 0.0 - - 10 - - - -
30/02:00pm 23.3 NW 26 36 1002.4 - 0.0 - - 10 - - - -
30/01:53pm 23.2 NW 24 36 1002.4 - 0.0 - - 10 - - - -
30/01:30pm 23.3 NW 24 30 1002.8 - 0.0 - - 10 - - - -
30/01:00pm 22.6 WNW 19 26 1003.4 - 0.0 - - 10 - - - -
30/12:30pm 23.3 NW 18 24 1003.8 - 0.0 - - 10 - - - -
30/12:00pm 22.3 WNW 21 27 1004.8 - 0.0 - - 10 - - - -
30/11:30am 22.3 NW 21 30 1005.4 - 0.0 - Partly cloudy 10 - - - -
30/11:28am 22.2 NW 20 30 1005.5 - 0.0 - Partly cloudy 10 - - - -
30/11:00am 20.8 WNW 20 26 1006.2 - 0.0 - Partly cloudy 10 - - - -
30/10:30am 20.4 NW 13 24 1006.9 - 0.0 - Partly cloudy 10 - - - -
30/10:00am 19.4 W 9 11 1007.6 - 0.0 - Partly cloudy 10 - - - -
30/09:30am 18.8 WSW 11 14 1008.2 - 0.0 - - 10 - - - -
30/09:00am 17.7 WSW 9 13 1008.7 F 0.0 Fine Mostly clear 30 - - - -
30/08:30am 16.3 WSW 9 12 1008.7 - 0.0 - Mostly clear 10 - - - -
30/08:00am 14.2 W 6 8 1008.8 - 0.0 - - 10 - - - -
30/07:30am 12.0 WSW 5 6 1008.8 - 0.0 - - 10 - - - -
30/07:00am 10.4 WSW 7 9 1008.8 - 0.0 - - 10 - - - -
30/06:30am 11.5 N 8 10 1008.4 - 0.0 - - 10 - - - -
30/06:00am 10.6 N 7 9 1008.4 - 0.0 - - 10 - - - -
30/05:30am 10.2 NNE 9 12 1008.5 - 0.0 - - 10 - - - -
30/05:00am 9.8 N 7 8 1008.7 - 0.0 - - 10 - - - -
30/04:30am 8.3 N 5 7 1008.9 - 0.0 - - 10 - - - -
30/04:00am 9.0 N 9 10 1009.0 - 0.0 - - 10 - - - -
30/03:30am 8.6 N 5 6 1009.5 - 0.0 - - 10 - - - -
30/03:00am 7.1 NNE 4 6 1010.0 - 0.0 - - 10 - - - -
30/02:30am 8.1 NNW 3 5 1010.6 - 0.0 - - 10 - - - -
30/02:00am 6.9 WNW 4 7 1011.0 - 0.0 - - 10 - - - -
30/01:30am 7.0 N 5 8 1011.3 - 0.0 - - 10 - - - -
30/01:00am 6.4 S 1 5 1011.6 - 0.0 - - 10 - - - -
30/12:30am 7.8 SSE 2 5 1011.8 - 0.0 - - 10 - - - -
30/12:00am 7.9 SSW 3 4 1012.0 - 0.0 - - 10 - - - -
 
Date/Time
EST
Temp

°C
Wind Pressure Rain
since 9am
mm
Weather Cloud Vis
km
Sea
Height
m
Swell
Dir
 
Speed
knots
Gust
knots
hPa Trend Height
m
Period
s
Dir
29/11:30pm 7.6 WNW 2 4 1012.1 - 0.0 - - 10 - - - -
29/11:00pm 10.6 NNE 2 5 1012.4 - 0.0 - - 10 - - - -
29/10:30pm 9.1 NE 7 9 1012.4 - 0.0 - - 10 - - - -
29/10:00pm 8.7 ENE 7 8 1012.6 - 0.0 - - 10 - - - -
29/09:30pm 9.6 ENE 6 7 1012.9 - 0.0 - - 10 - - - -
29/09:00pm 9.4 NE 6 7 1013.1 - 0.0 - - 10 - - - -
29/08:30pm 9.5 NE 6 7 1013.3 - 0.0 - - 10 - - - -
29/08:00pm 9.8 NE 7 9 1013.2 - 0.0 - - 10 - - - -
29/07:30pm 10.3 NE 9 10 1013.1 - 0.0 - - 10 - - - -
29/07:00pm 11.6 NE 8 10 1012.8 - 0.0 - - 10 - - - -

Other Formats:

Comma delimited format used in spreadsheet applications
http://www.bom.gov.au/fwo/IDV60701/IDV60701.94907.axf

JavaScript Object Notation format (JSON) in row-major order
http://www.bom.gov.au/fwo/IDV60701/IDV60701.94907.json